Time;durP1;ratioP1;P1;durP2;ratioP2;P2;SDS_P1;SDS_P2;PMS_P1;PMS_P2;Temp;Humidity;BMP_temperature;BMP_pressure;BME280_temperature;BME280_humidity;BME280_pressure;Samples;Min_cycle;Max_cycle;Signal;HPM_P1;HPM_P2
2022/03/04 00:01:25;;;;;;;14.77;8.75;;;;;;;;;;5073184;28;20055;-71
2022/03/04 00:03:51;;;;;;;16.17;8.77;;;;;;;;;;5074085;28;20062;-70
2022/03/04 00:06:17;;;;;;;16.20;8.75;;;;;;;;;;5086766;28;20166;-74
2022/03/04 00:08:43;;;;;;;16.17;9.35;;;;;;;;;;5087626;28;20053;-73
2022/03/04 00:11:09;;;;;;;14.13;9.32;;;;;;;;;;5092009;28;20096;-76
2022/03/04 00:13:35;;;;;;;14.25;9.10;;;;;;;;;;5092423;28;20048;-72
2022/03/04 00:16:01;;;;;;;14.50;9.70;;;;;;;;;;5088922;28;20134;-76
2022/03/04 00:18:27;;;;;;;15.20;9.80;;;;;;;;;;5085961;28;20048;-71
2022/03/04 00:20:53;;;;;;;16.50;10.18;;;;;;;;;;5089645;28;20055;-73
2022/03/04 00:23:20;;;;;;;16.40;9.63;;;;;;;;;;5090802;28;20097;-72
2022/03/04 00:25:46;;;;;;;13.02;9.93;;;;;;;;;;5071866;28;20656;-74
2022/03/04 00:28:12;;;;;;;14.18;9.93;;;;;;;;;;5083531;28;20138;-74
2022/03/04 00:30:38;;;;;;;13.57;9.73;;;;;;;;;;5073991;28;20234;-74
2022/03/04 00:33:07;;;;;;;17.30;9.75;;;;;;;;;;5073996;28;20052;-77
2022/03/04 00:35:33;;;;;;;14.98;10.55;;;;;;;;;;5072182;28;20073;-73
2022/03/04 00:37:59;;;;;;;15.80;10.93;;;;;;;;;;5084716;28;20092;-72
2022/03/04 00:40:25;;;;;;;16.48;11.57;;;;;;;;;;5091568;28;20071;-73
2022/03/04 00:42:51;;;;;;;19.33;12.02;;;;;;;;;;5091660;28;20079;-73
2022/03/04 00:45:17;;;;;;;16.50;12.27;;;;;;;;;;5090369;28;20431;-70
2022/03/04 00:47:43;;;;;;;21.00;12.18;;;;;;;;;;5081970;28;20047;-69
2022/03/04 00:50:10;;;;;;;18.02;12.15;;;;;;;;;;5071270;28;20054;-69
2022/03/04 00:52:36;;;;;;;21.80;13.00;;;;;;;;;;5072854;28;20233;-73
2022/03/04 00:55:04;;;;;;;18.92;12.50;;;;;;;;;;5085225;28;20048;-69
2022/03/04 00:57:30;;;;;;;19.98;13.00;;;;;;;;;;5082513;28;20058;-72
2022/03/04 00:59:55;;;;;;;17.88;12.23;;;;;;;;;;5090221;28;20043;-74
2022/03/04 01:02:22;;;;;;;21.55;12.00;;;;;;;;;;5090627;28;20501;-70
2022/03/04 01:04:48;;;;;;;21.35;11.88;;;;;;;;;;5087732;27;20373;-72
2022/03/04 01:07:14;;;;;;;21.58;12.75;;;;;;;;;;5064062;28;20097;-71
2022/03/04 01:09:39;;;;;;;23.83;12.40;;;;;;;;;;5091936;28;20075;-75
2022/03/04 01:12:06;;;;;;;17.77;11.88;;;;;;;;;;5091848;28;20587;-74
2022/03/04 01:14:32;;;;;;;16.02;11.93;;;;;;;;;;5090826;28;20100;-72
2022/03/04 01:16:58;;;;;;;18.92;11.63;;;;;;;;;;5082199;28;20051;-73
2022/03/04 01:19:24;;;;;;;17.88;11.30;;;;;;;;;;5089126;28;20394;-69
2022/03/04 01:21:50;;;;;;;18.08;10.82;;;;;;;;;;5088662;28;20100;-74
2022/03/04 01:24:16;;;;;;;20.08;11.57;;;;;;;;;;5089818;28;20056;-69
2022/03/04 01:26:42;;;;;;;18.50;11.70;;;;;;;;;;5082616;28;20054;-73
2022/03/04 01:29:08;;;;;;;18.50;11.43;;;;;;;;;;5089971;28;20044;-69
2022/03/04 01:31:34;;;;;;;16.88;10.15;;;;;;;;;;5083383;28;20047;-72
2022/03/04 01:34:00;;;;;;;19.27;11.55;;;;;;;;;;5088658;28;20055;-72
2022/03/04 01:36:30;;;;;;;14.40;10.18;;;;;;;;;;5082062;28;20075;-72
2022/03/04 01:38:56;;;;;;;13.13;10.93;;;;;;;;;;5086731;28;20052;-71
2022/03/04 01:41:22;;;;;;;17.52;11.98;;;;;;;;;;5090043;28;20067;-72
2022/03/04 01:43:48;;;;;;;17.27;12.65;;;;;;;;;;5082991;28;20055;-71
2022/03/04 01:46:16;;;;;;;18.73;11.98;;;;;;;;;;5084150;28;20058;-73
2022/03/04 01:48:44;;;;;;;17.50;11.52;;;;;;;;;;5085364;28;20446;-77
2022/03/04 01:51:11;;;;;;;16.48;11.40;;;;;;;;;;5087332;28;20370;-72
2022/03/04 01:53:39;;;;;;;17.55;12.40;;;;;;;;;;5087552;28;20047;-74
2022/03/04 01:56:05;;;;;;;20.60;11.75;;;;;;;;;;5087855;28;20040;-74
2022/03/04 01:58:32;;;;;;;23.67;12.07;;;;;;;;;;5065895;28;20048;-74
2022/03/04 02:00:58;;;;;;;17.75;11.50;;;;;;;;;;5088404;28;20051;-72
2022/03/04 02:03:25;;;;;;;20.00;11.63;;;;;;;;;;5089706;28;20261;-69
2022/03/04 02:05:51;;;;;;;13.80;10.95;;;;;;;;;;5088550;28;20048;-73
2022/03/04 02:08:16;;;;;;;14.80;10.02;;;;;;;;;;5079355;28;20081;-72
2022/03/04 02:10:43;;;;;;;17.70;11.45;;;;;;;;;;5087349;28;20058;-74
2022/03/04 02:13:08;;;;;;;15.70;11.05;;;;;;;;;;5089324;28;20043;-73
2022/03/04 02:15:34;;;;;;;17.95;11.68;;;;;;;;;;5071226;28;20507;-74
2022/03/04 02:18:08;;;;;;;17.75;11.90;;;;;;;;;;5082583;28;20059;-71
2022/03/04 02:20:35;;;;;;;15.20;11.60;;;;;;;;;;5087380;28;20341;-71
2022/03/04 02:23:01;;;;;;;15.57;11.38;;;;;;;;;;5089536;28;20542;-74
2022/03/04 02:25:27;;;;;;;19.50;12.27;;;;;;;;;;5089014;28;20263;-72
2022/03/04 02:27:52;;;;;;;19.33;11.40;;;;;;;;;;5081305;28;20054;-71
2022/03/04 02:30:19;;;;;;;17.90;10.68;;;;;;;;;;5088831;28;20172;-69
2022/03/04 02:32:44;;;;;;;18.75;12.13;;;;;;;;;;5088501;28;20481;-72
2022/03/04 02:35:10;;;;;;;20.38;12.23;;;;;;;;;;5088195;28;20427;-74
2022/03/04 02:37:39;;;;;;;18.48;12.43;;;;;;;;;;5080810;28;20048;-72
2022/03/04 02:40:05;;;;;;;22.02;11.95;;;;;;;;;;5069264;28;20090;-71
2022/03/04 02:42:31;;;;;;;16.98;11.57;;;;;;;;;;5070554;28;20055;-73
2022/03/04 02:44:57;;;;;;;14.77;10.77;;;;;;;;;;5087959;28;20122;-74
2022/03/04 02:47:23;;;;;;;18.20;11.18;;;;;;;;;;5079163;28;20055;-75
2022/03/04 02:49:49;;;;;;;17.60;10.52;;;;;;;;;;5088376;28;20047;-73
2022/03/04 02:52:15;;;;;;;16.58;10.23;;;;;;;;;;5087347;28;20143;-72
2022/03/04 02:54:41;;;;;;;14.05;10.05;;;;;;;;;;5066925;28;20051;-74
2022/03/04 02:57:07;;;;;;;14.35;9.70;;;;;;;;;;5081200;28;20071;-70
2022/03/04 02:59:33;;;;;;;15.05;9.02;;;;;;;;;;5088154;28;20995;-72
2022/03/04 03:01:58;;;;;;;13.68;8.73;;;;;;;;;;5086698;28;20082;-74
2022/03/04 03:04:24;;;;;;;15.70;9.00;;;;;;;;;;5088341;28;20084;-70
2022/03/04 03:06:52;;;;;;;10.50;7.68;;;;;;;;;;5080625;28;20066;-71
2022/03/04 03:09:17;;;;;;;12.75;8.23;;;;;;;;;;5087330;28;20052;-71
2022/03/04 03:11:43;;;;;;;9.25;6.85;;;;;;;;;;5089378;28;20044;-72
2022/03/04 03:14:09;;;;;;;9.57;7.15;;;;;;;;;;5088868;28;20151;-74
2022/03/04 03:16:35;;;;;;;11.70;7.45;;;;;;;;;;5084532;28;20051;-74
2022/03/04 03:19:01;;;;;;;15.30;7.13;;;;;;;;;;5092101;28;20044;-75
2022/03/04 03:21:27;;;;;;;11.40;7.00;;;;;;;;;;5070957;28;20055;-75
2022/03/04 03:23:53;;;;;;;10.95;7.35;;;;;;;;;;5089046;28;20061;-75
2022/03/04 03:26:19;;;;;;;9.95;6.60;;;;;;;;;;5087039;28;20695;-75
2022/03/04 03:28:45;;;;;;;11.30;7.18;;;;;;;;;;5088128;28;20048;-71
2022/03/04 03:31:11;;;;;;;11.60;6.60;;;;;;;;;;5091058;27;20150;-75
2022/03/04 03:33:37;;;;;;;9.50;6.20;;;;;;;;;;5091361;28;20043;-72
2022/03/04 03:36:04;;;;;;;11.60;6.95;;;;;;;;;;5089032;28;20130;-75
2022/03/04 03:38:30;;;;;;;8.95;7.22;;;;;;;;;;5085935;28;20142;-74
2022/03/04 03:40:56;;;;;;;12.30;7.13;;;;;;;;;;5091861;28;20051;-73
2022/03/04 03:43:22;;;;;;;12.73;8.10;;;;;;;;;;5093199;28;20085;-73
2022/03/04 03:45:47;;;;;;;13.82;8.20;;;;;;;;;;5092104;28;20054;-70
2022/03/04 03:48:13;;;;;;;16.05;9.38;;;;;;;;;;5085255;28;20376;-73
2022/03/04 03:50:39;;;;;;;15.15;10.13;;;;;;;;;;5075259;28;20066;-72
2022/03/04 03:53:06;;;;;;;15.93;10.52;;;;;;;;;;5092052;28;20517;-73
2022/03/04 03:55:32;;;;;;;17.17;10.50;;;;;;;;;;5091488;28;20436;-75
2022/03/04 03:57:58;;;;;;;18.90;11.98;;;;;;;;;;5084260;28;20526;-77
2022/03/04 04:00:24;;;;;;;19.98;11.80;;;;;;;;;;5089973;28;20282;-72
2022/03/04 04:02:50;;;;;;;16.48;11.15;;;;;;;;;;5090860;28;20462;-70
2022/03/04 04:05:16;;;;;;;16.27;11.73;;;;;;;;;;5090350;28;20056;-71
2022/03/04 04:07:42;;;;;;;20.55;12.70;;;;;;;;;;5065753;28;20412;-75
2022/03/04 04:10:08;;;;;;;18.90;12.30;;;;;;;;;;5090713;28;20056;-71
2022/03/04 04:12:35;;;;;;;20.25;13.27;;;;;;;;;;5091360;28;20866;-73
2022/03/04 04:15:01;;;;;;;18.50;12.88;;;;;;;;;;5092050;28;20516;-72
2022/03/04 04:17:27;;;;;;;21.10;13.90;;;;;;;;;;5090173;28;20051;-70
2022/03/04 04:19:53;;;;;;;21.08;13.38;;;;;;;;;;5089776;28;20070;-71
2022/03/04 04:22:20;;;;;;;22.80;13.82;;;;;;;;;;5082015;28;20044;-71
2022/03/04 04:24:46;;;;;;;18.92;13.13;;;;;;;;;;5069322;28;20067;-75
2022/03/04 04:27:12;;;;;;;19.30;12.55;;;;;;;;;;5088310;28;20073;-74
2022/03/04 04:29:38;;;;;;;20.00;11.27;;;;;;;;;;5090867;28;20055;-71
2022/03/04 04:32:04;;;;;;;17.77;10.70;;;;;;;;;;5090828;28;20185;-70
2022/03/04 04:34:30;;;;;;;13.73;9.52;;;;;;;;;;5091576;28;20058;-72
2022/03/04 04:36:56;;;;;;;14.32;8.57;;;;;;;;;;5088018;28;20051;-69
2022/03/04 04:39:22;;;;;;;11.30;8.02;;;;;;;;;;5087863;28;20067;-74
2022/03/04 04:41:48;;;;;;;13.80;8.15;;;;;;;;;;5084359;28;20039;-69
2022/03/04 04:44:14;;;;;;;10.13;7.32;;;;;;;;;;5085104;28;20044;-72
2022/03/04 04:46:39;;;;;;;9.15;6.32;;;;;;;;;;5084445;28;20091;-71
2022/03/04 04:49:05;;;;;;;7.90;6.05;;;;;;;;;;5089095;28;20142;-71
2022/03/04 04:51:31;;;;;;;9.57;6.35;;;;;;;;;;5090583;28;20051;-70
2022/03/04 04:53:57;;;;;;;7.40;5.38;;;;;;;;;;5090486;28;20441;-75
2022/03/04 04:56:23;;;;;;;9.15;4.80;;;;;;;;;;5088292;28;20050;-68
2022/03/04 04:58:49;;;;;;;5.85;4.00;;;;;;;;;;5090800;28;20186;-69
2022/03/04 05:01:15;;;;;;;6.10;3.60;;;;;;;;;;5083785;28;20052;-73
2022/03/04 05:03:43;;;;;;;4.10;3.25;;;;;;;;;;5083308;28;20039;-73
2022/03/04 05:06:09;;;;;;;4.85;3.05;;;;;;;;;;5075361;27;20047;-75
2022/03/04 05:08:34;;;;;;;3.15;2.55;;;;;;;;;;5084743;28;20042;-73
2022/03/04 05:11:01;;;;;;;4.10;2.92;;;;;;;;;;5067976;28;20136;-75
2022/03/04 05:13:27;;;;;;;4.68;2.70;;;;;;;;;;5085957;28;20392;-69
2022/03/04 05:15:53;;;;;;;5.65;2.95;;;;;;;;;;5063277;28;20500;-73
2022/03/04 05:18:19;;;;;;;4.00;2.85;;;;;;;;;;5081880;28;20047;-68
2022/03/04 05:20:45;;;;;;;4.35;2.80;;;;;;;;;;5083518;28;20150;-71
2022/03/04 05:23:11;;;;;;;3.60;2.47;;;;;;;;;;5084904;28;20045;-73
2022/03/04 05:25:36;;;;;;;3.67;2.40;;;;;;;;;;5079681;28;20871;-73
2022/03/04 05:28:03;;;;;;;4.28;2.50;;;;;;;;;;5052974;28;20058;-74
2022/03/04 05:30:29;;;;;;;7.70;2.95;;;;;;;;;;5057244;28;20841;-72
2022/03/04 05:32:55;;;;;;;8.13;2.60;;;;;;;;;;5079450;28;20051;-70
2022/03/04 05:35:20;;;;;;;3.72;2.90;;;;;;;;;;5076540;28;20097;-71
2022/03/04 05:37:46;;;;;;;5.82;2.80;;;;;;;;;;5071351;28;20056;-73
2022/03/04 05:40:12;;;;;;;4.72;2.80;;;;;;;;;;5076841;28;20051;-73
2022/03/04 05:42:38;;;;;;;7.07;3.00;;;;;;;;;;5059704;28;20449;-74
2022/03/04 05:45:04;;;;;;;5.90;2.90;;;;;;;;;;5077815;28;20120;-72
2022/03/04 05:47:30;;;;;;;4.63;2.72;;;;;;;;;;5054618;28;20441;-74
2022/03/04 05:49:56;;;;;;;4.60;2.75;;;;;;;;;;5073791;28;20067;-76
2022/03/04 05:52:22;;;;;;;4.20;2.83;;;;;;;;;;5074314;28;21481;-71
2022/03/04 05:54:48;;;;;;;5.50;2.90;;;;;;;;;;5076151;28;20039;-74
2022/03/04 05:57:14;;;;;;;5.65;3.15;;;;;;;;;;5072705;28;20058;-73
2022/03/04 05:59:41;;;;;;;7.75;2.75;;;;;;;;;;5077181;28;20077;-72
2022/03/04 06:02:06;;;;;;;10.77;3.25;;;;;;;;;;5073872;28;20059;-72
2022/03/04 06:04:32;;;;;;;8.88;3.30;;;;;;;;;;5076014;28;20048;-76
2022/03/04 06:06:58;;;;;;;5.38;3.00;;;;;;;;;;5069976;28;20048;-71
2022/03/04 06:09:28;;;;;;;6.38;3.58;;;;;;;;;;5073802;27;20059;-74
2022/03/04 06:11:55;;;;;;;7.38;3.00;;;;;;;;;;5077810;28;20142;-73
2022/03/04 06:14:21;;;;;;;12.10;3.72;;;;;;;;;;5077342;28;20047;-75
2022/03/04 06:16:47;;;;;;;7.65;3.17;;;;;;;;;;5072598;28;20059;-72
2022/03/04 06:19:13;;;;;;;5.45;2.90;;;;;;;;;;5074858;28;20485;-73
2022/03/04 06:21:39;;;;;;;7.65;3.10;;;;;;;;;;5074201;28;20241;-73
2022/03/04 06:24:05;;;;;;;6.53;2.90;;;;;;;;;;5073408;28;20290;-72
2022/03/04 06:26:32;;;;;;;7.50;2.70;;;;;;;;;;5054898;28;20153;-72
2022/03/04 06:28:59;;;;;;;8.07;2.85;;;;;;;;;;5074944;28;20052;-72
2022/03/04 06:31:24;;;;;;;5.70;2.90;;;;;;;;;;5072077;28;20214;-73
2022/03/04 06:33:50;;;;;;;7.97;2.60;;;;;;;;;;5075386;28;20116;-72
2022/03/04 06:36:16;;;;;;;8.70;2.97;;;;;;;;;;5071084;28;20051;-74
2022/03/04 06:38:45;;;;;;;7.78;2.72;;;;;;;;;;5075292;28;20074;-74
2022/03/04 06:41:12;;;;;;;9.93;3.30;;;;;;;;;;5075371;28;20055;-74
2022/03/04 06:43:39;;;;;;;5.70;3.17;;;;;;;;;;5077343;28;20139;-71
2022/03/04 06:46:06;;;;;;;6.78;3.00;;;;;;;;;;5070737;28;20079;-73
2022/03/04 06:48:33;;;;;;;9.65;3.15;;;;;;;;;;5073033;28;20528;-66
2022/03/04 06:51:00;;;;;;;10.50;3.58;;;;;;;;;;5074193;28;20059;-75
2022/03/04 06:53:26;;;;;;;8.65;3.20;;;;;;;;;;5074921;28;20063;-71
2022/03/04 06:55:53;;;;;;;5.15;2.95;;;;;;;;;;5073827;28;20087;-71
2022/03/04 06:58:20;;;;;;;7.03;3.22;;;;;;;;;;5073633;28;20065;-72
2022/03/04 07:00:47;;;;;;;10.00;3.50;;;;;;;;;;5076667;28;20051;-75
2022/03/04 07:03:14;;;;;;;9.73;3.08;;;;;;;;;;5056403;28;20540;-73
2022/03/04 07:05:43;;;;;;;5.40;2.90;;;;;;;;;;5060399;28;20040;-74
2022/03/04 07:08:11;;;;;;;13.02;3.10;;;;;;;;;;5055640;28;20546;-73
2022/03/04 07:10:43;;;;;;;5.28;2.50;;;;;;;;;;5057420;28;20117;-74
2022/03/04 07:13:09;;;;;;;10.35;2.35;;;;;;;;;;5062800;28;20135;-74
2022/03/04 07:15:36;;;;;;;3.60;2.25;;;;;;;;;;5061394;28;20674;-80
2022/03/04 07:18:02;;;;;;;4.38;2.08;;;;;;;;;;5056435;28;20804;-74
2022/03/04 07:20:28;;;;;;;5.05;2.53;;;;;;;;;;5058353;28;20044;-74
2022/03/04 07:22:54;;;;;;;6.22;2.40;;;;;;;;;;5059370;28;20075;-75
2022/03/04 07:25:20;;;;;;;5.93;2.22;;;;;;;;;;5057137;28;20147;-74
2022/03/04 07:27:46;;;;;;;6.70;2.47;;;;;;;;;;5056065;28;20116;-76
2022/03/04 07:30:14;;;;;;;7.93;2.10;;;;;;;;;;5059071;28;20219;-75
2022/03/04 07:32:41;;;;;;;5.68;2.60;;;;;;;;;;5059021;28;21024;-78
2022/03/04 07:35:08;;;;;;;4.28;2.08;;;;;;;;;;5059078;28;20328;-76
2022/03/04 07:37:36;;;;;;;6.68;2.17;;;;;;;;;;5054554;28;20059;-75
2022/03/04 07:40:06;;;;;;;8.57;2.47;;;;;;;;;;5058705;28;20314;-79
2022/03/04 07:42:32;;;;;;;6.18;2.00;;;;;;;;;;5055950;28;20052;-80
2022/03/04 07:44:59;;;;;;;4.18;1.95;;;;;;;;;;5060358;28;20782;-80
2022/03/04 07:47:25;;;;;;;5.05;2.00;;;;;;;;;;5060439;28;20059;-78
2022/03/04 07:49:52;;;;;;;5.25;2.40;;;;;;;;;;5058357;28;20060;-76
2022/03/04 07:52:18;;;;;;;9.13;2.75;;;;;;;;;;5061072;28;20055;-70
2022/03/04 07:54:44;;;;;;;6.53;2.53;;;;;;;;;;5059087;28;20263;-73
2022/03/04 07:57:10;;;;;;;8.43;2.22;;;;;;;;;;5056747;28;20123;-77
2022/03/04 07:59:36;;;;;;;3.03;2.10;;;;;;;;;;5062482;28;20147;-78
2022/03/04 08:02:03;;;;;;;7.28;2.58;;;;;;;;;;5074061;28;20139;-73
2022/03/04 08:04:28;;;;;;;12.63;2.78;;;;;;;;;;5085984;28;20581;-73
2022/03/04 08:06:54;;;;;;;6.53;2.40;;;;;;;;;;5078973;28;20142;-76
2022/03/04 08:09:20;;;;;;;8.45;2.60;;;;;;;;;;5079778;28;20051;-78
2022/03/04 08:11:47;;;;;;;5.43;2.75;;;;;;;;;;5064234;28;20051;-75
2022/03/04 08:14:13;;;;;;;8.90;3.10;;;;;;;;;;5082182;28;20092;-78
2022/03/04 08:16:39;;;;;;;6.10;2.83;;;;;;;;;;5080204;28;20038;-78
2022/03/04 08:19:05;;;;;;;13.20;3.63;;;;;;;;;;5064830;28;20737;-77
2022/03/04 08:21:31;;;;;;;12.02;3.08;;;;;;;;;;5080711;28;20054;-76
2022/03/04 08:23:57;;;;;;;11.43;3.58;;;;;;;;;;5075395;28;20059;-74
2022/03/04 08:26:23;;;;;;;9.27;3.88;;;;;;;;;;5076563;27;20130;-77
2022/03/04 08:28:49;;;;;;;8.02;3.22;;;;;;;;;;5064859;28;20055;-76
2022/03/04 08:31:15;;;;;;;7.10;2.65;;;;;;;;;;5061032;28;20043;-75
2022/03/04 08:33:43;;;;;;;9.10;2.95;;;;;;;;;;5079146;28;20048;-78
2022/03/04 08:36:10;;;;;;;11.57;2.97;;;;;;;;;;5078659;28;20705;-77
2022/03/04 08:38:37;;;;;;;8.25;2.90;;;;;;;;;;5085029;28;20445;-76
2022/03/04 08:41:03;;;;;;;9.93;2.50;;;;;;;;;;5083375;27;20146;-73
2022/03/04 08:43:31;;;;;;;5.13;2.90;;;;;;;;;;5083496;28;20146;-78
2022/03/04 08:45:57;;;;;;;4.03;2.60;;;;;;;;;;5083488;28;20514;-73
2022/03/04 08:48:23;;;;;;;11.43;2.80;;;;;;;;;;5082843;28;20051;-74
2022/03/04 08:50:50;;;;;;;6.32;2.67;;;;;;;;;;5084099;28;20127;-76
2022/03/04 08:53:15;;;;;;;11.10;2.58;;;;;;;;;;5083414;28;20043;-74
2022/03/04 08:55:44;;;;;;;8.43;3.10;;;;;;;;;;5085321;28;20100;-78
2022/03/04 08:58:10;;;;;;;6.05;2.65;;;;;;;;;;5083675;28;20500;-76
2022/03/04 09:00:37;;;;;;;8.23;2.63;;;;;;;;;;5085226;28;20121;-79
2022/03/04 09:03:04;;;;;;;9.20;2.70;;;;;;;;;;5062000;28;20616;-75
2022/03/04 09:05:31;;;;;;;6.28;2.72;;;;;;;;;;5064555;28;21362;-74
2022/03/04 09:07:57;;;;;;;4.22;2.47;;;;;;;;;;5060978;28;20081;-78
2022/03/04 09:10:23;;;;;;;5.78;2.78;;;;;;;;;;5062565;28;20398;-77
2022/03/04 09:12:49;;;;;;;6.47;2.70;;;;;;;;;;5064151;28;20467;-73
2022/03/04 09:15:15;;;;;;;6.72;2.58;;;;;;;;;;5062888;28;20078;-73
2022/03/04 09:17:40;;;;;;;4.82;2.28;;;;;;;;;;5060687;28;20485;-76
2022/03/04 09:20:08;;;;;;;5.65;2.50;;;;;;;;;;5063013;28;20674;-77
2022/03/04 09:22:34;;;;;;;8.38;2.63;;;;;;;;;;5062201;28;20048;-74
2022/03/04 09:25:00;;;;;;;12.73;2.70;;;;;;;;;;5064538;28;20827;-74
2022/03/04 09:27:26;;;;;;;4.30;2.22;;;;;;;;;;5061033;28;20466;-72
2022/03/04 09:29:52;;;;;;;5.57;2.50;;;;;;;;;;5063906;28;20484;-75
2022/03/04 09:32:19;;;;;;;7.65;2.30;;;;;;;;;;5061669;28;20508;-75
2022/03/04 09:34:45;;;;;;;6.45;2.20;;;;;;;;;;5062550;28;20044;-74
2022/03/04 09:37:11;;;;;;;8.45;2.35;;;;;;;;;;5055662;28;20505;-78
2022/03/04 09:39:37;;;;;;;5.05;2.13;;;;;;;;;;5063878;28;20048;-77
2022/03/04 09:42:03;;;;;;;8.20;2.45;;;;;;;;;;5065210;28;20075;-80
2022/03/04 09:44:29;;;;;;;5.05;2.33;;;;;;;;;;5063284;28;20076;-74
2022/03/04 09:46:58;;;;;;;6.00;2.08;;;;;;;;;;5062188;28;20044;-75
2022/03/04 09:49:31;;;;;;;9.75;2.30;;;;;;;;;;5062399;28;20044;-76
2022/03/04 09:51:57;;;;;;;5.82;1.95;;;;;;;;;;5077888;28;20048;-77
2022/03/04 09:54:27;;;;;;;7.57;2.78;;;;;;;;;;5064132;28;20052;-73
2022/03/04 09:56:55;;;;;;;8.32;2.20;;;;;;;;;;5059504;28;20044;-81
2022/03/04 09:59:21;;;;;;;7.45;2.05;;;;;;;;;;5063215;28;20690;-74
2022/03/04 10:01:48;;;;;;;7.05;1.90;;;;;;;;;;5070803;28;20126;-77
2022/03/04 10:04:14;;;;;;;8.60;2.15;;;;;;;;;;5083049;28;20039;-77
2022/03/04 10:06:46;;;;;;;10.57;1.88;;;;;;;;;;5080931;28;20116;-76
2022/03/04 10:09:13;;;;;;;7.53;2.05;;;;;;;;;;5081755;28;20066;-77
2022/03/04 10:11:39;;;;;;;12.27;2.30;;;;;;;;;;5082440;28;20100;-76
2022/03/04 10:14:08;;;;;;;6.53;2.30;;;;;;;;;;5084372;28;20055;-77
2022/03/04 10:16:36;;;;;;;6.75;2.40;;;;;;;;;;5080196;28;20047;-74
2022/03/04 10:19:14;;;;;;;5.00;1.65;;;;;;;;;;5084317;28;20158;-77
2022/03/04 10:21:55;;;;;;;12.40;1.92;;;;;;;;;;5065556;28;20092;-78
2022/03/04 10:24:30;;;;;;;10.70;2.50;;;;;;;;;;5083206;28;20039;-72
2022/03/04 10:27:02;;;;;;;5.43;1.77;;;;;;;;;;5081047;28;20063;-76
2022/03/04 10:29:30;;;;;;;6.95;1.50;;;;;;;;;;5084370;28;20058;-73
2022/03/04 10:32:05;;;;;;;5.10;1.30;;;;;;;;;;5085590;28;20141;-74
2022/03/04 10:34:52;;;;;;;3.45;1.20;;;;;;;;;;5084529;28;20332;-73
2022/03/04 10:37:41;;;;;;;7.43;1.30;;;;;;;;;;5081527;28;20462;-77
2022/03/04 10:40:07;;;;;;;4.00;1.10;;;;;;;;;;5082680;28;20051;-74
2022/03/04 10:43:04;;;;;;;3.22;1.30;;;;;;;;;;5083609;28;20047;-77
2022/03/04 10:45:34;;;;;;;2.75;1.20;;;;;;;;;;5081623;28;20154;-78
2022/03/04 10:48:02;;;;;;;3.38;1.10;;;;;;;;;;5079394;28;20052;-75
2022/03/04 10:50:32;;;;;;;4.38;1.30;;;;;;;;;;5082923;28;20055;-76
2022/03/04 10:53:07;;;;;;;4.03;1.40;;;;;;;;;;5080666;28;20048;-73
2022/03/04 10:55:46;;;;;;;5.88;2.05;;;;;;;;;;5081283;28;20044;-77
2022/03/04 10:58:14;;;;;;;5.10;1.55;;;;;;;;;;5079858;28;20123;-79
2022/03/04 11:00:43;;;;;;;2.72;1.40;;;;;;;;;;5085242;28;20051;-79
2022/03/04 11:03:14;;;;;;;4.97;1.40;;;;;;;;;;5084792;28;20051;-75
2022/03/04 11:05:40;;;;;;;5.40;1.42;;;;;;;;;;5082210;28;20473;-80
2022/03/04 11:08:08;;;;;;;2.70;1.50;;;;;;;;;;5080858;28;20047;-79
2022/03/04 11:10:34;;;;;;;6.35;1.98;;;;;;;;;;5085135;28;20048;-77
2022/03/04 11:13:03;;;;;;;3.85;1.48;;;;;;;;;;5083790;28;20052;-76
2022/03/04 11:15:31;;;;;;;2.65;1.60;;;;;;;;;;5085587;28;20935;-75
2022/03/04 11:18:00;;;;;;;10.48;1.60;;;;;;;;;;5081460;28;20060;-73
2022/03/04 11:20:26;;;;;;;4.82;1.50;;;;;;;;;;5080988;28;20047;-75
2022/03/04 11:22:53;;;;;;;3.17;1.40;;;;;;;;;;5082421;28;20100;-75
2022/03/04 11:25:22;;;;;;;3.38;1.52;;;;;;;;;;5082295;28;20416;-78
2022/03/04 11:27:50;;;;;;;4.97;1.67;;;;;;;;;;5079878;28;20056;-76
2022/03/04 11:30:38;;;;;;;6.32;1.67;;;;;;;;;;5082551;28;20058;-78
2022/03/04 11:33:18;;;;;;;8.70;1.98;;;;;;;;;;5060858;28;20074;-79
2022/03/04 11:35:52;;;;;;;5.20;1.65;;;;;;;;;;5084073;28;20070;-78
2022/03/04 11:38:43;;;;;;;5.85;1.80;;;;;;;;;;5084738;28;20051;-75
2022/03/04 11:41:34;;;;;;;5.35;1.95;;;;;;;;;;5087618;28;20830;-80
2022/03/04 11:44:10;;;;;;;6.85;1.92;;;;;;;;;;5086780;28;20375;-72
2022/03/04 11:47:05;;;;;;;2.88;1.70;;;;;;;;;;5083498;28;20425;-75
2022/03/04 11:49:44;;;;;;;4.50;1.70;;;;;;;;;;5083635;28;20527;-77
2022/03/04 11:52:10;;;;;;;4.45;1.80;;;;;;;;;;5084874;28;20055;-76
2022/03/04 11:54:44;;;;;;;3.40;2.03;;;;;;;;;;5085733;28;20050;-74
2022/03/04 11:57:23;;;;;;;4.28;1.95;;;;;;;;;;5083430;28;20067;-78
2022/03/04 12:00:00;;;;;;;6.85;2.38;;;;;;;;;;5085199;28;20047;-75
2022/03/04 12:02:34;;;;;;;4.43;2.47;;;;;;;;;;5084995;28;20491;-73
2022/03/04 12:05:13;;;;;;;3.55;2.15;;;;;;;;;;5084647;28;20422;-75
2022/03/04 12:07:44;;;;;;;7.22;2.33;;;;;;;;;;5081469;28;20044;-73
2022/03/04 12:10:14;;;;;;;5.65;2.10;;;;;;;;;;5085900;28;20419;-82
2022/03/04 12:12:58;;;;;;;8.32;3.00;;;;;;;;;;5086024;28;20051;-76
2022/03/04 12:15:24;;;;;;;5.75;2.67;;;;;;;;;;5084502;28;20934;-76
2022/03/04 12:18:04;;;;;;;3.47;2.53;;;;;;;;;;5080934;28;20047;-76
2022/03/04 12:20:39;;;;;;;3.95;2.30;;;;;;;;;;5084444;28;20300;-76
2022/03/04 12:23:16;;;;;;;5.00;2.65;;;;;;;;;;5085297;28;20043;-78
2022/03/04 12:25:51;;;;;;;3.42;2.10;;;;;;;;;;5087627;28;20043;-79
2022/03/04 12:28:20;;;;;;;4.45;2.65;;;;;;;;;;5084232;28;20060;-77
2022/03/04 12:30:54;;;;;;;4.13;2.25;;;;;;;;;;5087433;28;20043;-77
2022/03/04 12:33:21;;;;;;;4.78;2.03;;;;;;;;;;5084961;28;20812;-75
2022/03/04 12:35:47;;;;;;;8.65;2.47;;;;;;;;;;5085864;28;20058;-79
2022/03/04 12:38:13;;;;;;;8.07;2.50;;;;;;;;;;5082583;28;20059;-80
2022/03/04 12:40:38;;;;;;;10.32;3.80;;;;;;;;;;5086231;28;20796;-78
2022/03/04 12:43:08;;;;;;;6.20;2.53;;;;;;;;;;5086606;28;20090;-77
2022/03/04 12:45:34;;;;;;;5.28;2.65;;;;;;;;;;5085696;28;20578;-78
2022/03/04 12:48:00;;;;;;;5.25;2.38;;;;;;;;;;5080305;28;20093;-72
2022/03/04 12:50:30;;;;;;;6.63;2.33;;;;;;;;;;5083307;28;20067;-78
2022/03/04 12:52:56;;;;;;;4.90;2.35;;;;;;;;;;5066514;28;20139;-80
2022/03/04 12:55:22;;;;;;;4.53;2.20;;;;;;;;;;5084567;28;20056;-76
2022/03/04 12:57:51;;;;;;;5.53;2.40;;;;;;;;;;5082662;28;20051;-77
2022/03/04 13:00:17;;;;;;;3.55;2.67;;;;;;;;;;5083892;28;20055;-80
2022/03/04 13:02:45;;;;;;;4.45;2.55;;;;;;;;;;5087105;28;20055;-81
2022/03/04 13:05:11;;;;;;;4.00;2.28;;;;;;;;;;5083425;28;20075;-78
2022/03/04 13:07:37;;;;;;;10.30;2.80;;;;;;;;;;5082535;28;20051;-77
2022/03/04 13:10:07;;;;;;;6.55;3.00;;;;;;;;;;5085794;28;20051;-77
2022/03/04 13:12:33;;;;;;;5.85;2.70;;;;;;;;;;5069564;28;20047;-75
2022/03/04 13:15:26;;;;;;;6.28;2.78;;;;;;;;;;5085713;28;20048;-81
2022/03/04 13:17:52;;;;;;;7.43;2.70;;;;;;;;;;5077086;28;20074;-77
2022/03/04 13:20:18;;;;;;;4.03;2.10;;;;;;;;;;5085728;28;20055;-80
2022/03/04 13:22:44;;;;;;;9.07;3.35;;;;;;;;;;5083410;28;20090;-76
2022/03/04 13:25:10;;;;;;;6.50;3.05;;;;;;;;;;5085809;28;20181;-77
2022/03/04 13:27:43;;;;;;;6.78;3.10;;;;;;;;;;5083328;28;20056;-77
2022/03/04 13:30:09;;;;;;;4.30;2.42;;;;;;;;;;5087105;28;20128;-80
2022/03/04 13:32:44;;;;;;;8.57;2.80;;;;;;;;;;5083816;28;20052;-79
2022/03/04 13:35:11;;;;;;;6.95;3.38;;;;;;;;;;5085045;28;20184;-75
2022/03/04 13:37:39;;;;;;;3.80;2.40;;;;;;;;;;5083652;28;20143;-76
2022/03/04 13:40:08;;;;;;;6.70;2.30;;;;;;;;;;5085250;28;20298;-75
2022/03/04 13:42:52;;;;;;;5.55;2.60;;;;;;;;;;5084166;28;21197;-77
2022/03/04 13:45:44;;;;;;;7.57;2.50;;;;;;;;;;5083074;28;20256;-79
2022/03/04 13:48:11;;;;;;;6.30;3.58;;;;;;;;;;5080901;28;20063;-78
2022/03/04 13:50:39;;;;;;;7.28;3.78;;;;;;;;;;5084328;28;20139;-75
2022/03/04 13:53:06;;;;;;;7.38;2.72;;;;;;;;;;5083998;28;20731;-75
2022/03/04 13:55:35;;;;;;;3.88;2.47;;;;;;;;;;5083253;28;20661;-78
2022/03/04 13:58:10;;;;;;;9.00;2.90;;;;;;;;;;5077564;28;20556;-75
2022/03/04 14:00:37;;;;;;;6.90;2.70;;;;;;;;;;5083969;28;20166;-80
2022/03/04 14:03:08;;;;;;;3.75;2.45;;;;;;;;;;5084006;28;21517;-77
2022/03/04 14:05:37;;;;;;;4.32;2.65;;;;;;;;;;5081610;28;20069;-78
2022/03/04 14:08:06;;;;;;;10.00;2.47;;;;;;;;;;5078801;28;20074;-75
2022/03/04 14:10:33;;;;;;;10.35;2.65;;;;;;;;;;5083718;28;20399;-75
2022/03/04 14:13:00;;;;;;;5.30;2.20;;;;;;;;;;5083490;28;20470;-75
2022/03/04 14:15:27;;;;;;;6.85;3.33;;;;;;;;;;5084650;28;20052;-73
2022/03/04 14:17:58;;;;;;;8.82;2.78;;;;;;;;;;5078660;28;20128;-77
2022/03/04 14:20:26;;;;;;;5.28;2.83;;;;;;;;;;5083525;28;20055;-75
2022/03/04 14:22:52;;;;;;;7.85;2.80;;;;;;;;;;5083394;28;20055;-77
2022/03/04 14:25:18;;;;;;;4.38;2.80;;;;;;;;;;5084719;28;20039;-79
2022/03/04 14:27:48;;;;;;;6.75;3.30;;;;;;;;;;5082651;28;20055;-79
2022/03/04 14:30:16;;;;;;;9.05;2.85;;;;;;;;;;5086551;28;20134;-76
2022/03/04 14:32:43;;;;;;;9.35;3.40;;;;;;;;;;5086598;28;20051;-78
2022/03/04 14:35:10;;;;;;;6.80;2.65;;;;;;;;;;5082088;28;20170;-75
2022/03/04 14:37:37;;;;;;;5.68;2.70;;;;;;;;;;5079879;28;20541;-75
2022/03/04 14:40:06;;;;;;;4.28;2.53;;;;;;;;;;5080208;28;20605;-74